createdAt,value
2022-09-18T04:01:43.711Z,100.00
2022-09-18T04:04:30.663Z,100.00
2022-09-18T04:07:20.996Z,100.00
2022-09-18T04:10:15.761Z,100.00
2022-09-18T04:12:49.097Z,100.00
2022-09-18T04:15:24.865Z,100.00
2022-09-18T04:17:56.595Z,100.00
2022-09-18T04:20:31.552Z,100.00
2022-09-18T04:23:03.652Z,100.00
2022-09-18T04:25:35.244Z,100.00
2022-09-18T04:28:06.894Z,100.00
2022-09-18T04:30:42.865Z,100.00
2022-09-18T04:33:16.097Z,100.00
2022-09-18T04:35:48.134Z,100.00
2022-09-18T04:38:19.968Z,100.00
2022-09-18T04:40:58.366Z,100.00
2022-09-18T04:43:30.321Z,100.00
2022-09-18T04:46:03.144Z,100.00
2022-09-18T04:48:34.688Z,100.00
2022-09-18T04:51:04.647Z,100.00
2022-09-18T04:53:47.820Z,100.00
2022-09-18T04:56:19.714Z,100.00
2022-09-18T04:58:53.654Z,100.00
2022-09-18T05:01:25.434Z,100.00
2022-09-18T05:03:55.096Z,100.00
2022-09-18T05:06:35.345Z,100.00
2022-09-18T05:09:06.995Z,100.00
2022-09-18T05:11:38.594Z,100.00
2022-09-18T05:14:08.957Z,100.00
2022-09-18T05:16:40.648Z,100.00
2022-09-18T05:19:32.178Z,100.00
2022-09-18T05:22:07.520Z,100.00
2022-09-18T05:24:41.298Z,100.00
2022-09-18T05:27:12.807Z,100.00
2022-09-18T05:29:43.164Z,100.00
2022-09-18T05:32:20.581Z,100.00
2022-09-18T05:34:52.060Z,100.00
2022-09-18T05:37:22.210Z,100.00
2022-09-18T05:39:56.661Z,100.00
2022-09-18T05:42:28.305Z,100.00
2022-09-18T05:45:02.238Z,100.00
2022-09-18T05:47:36.476Z,100.00
2022-09-18T05:50:10.485Z,100.00
2022-09-18T05:52:42.082Z,100.00
2022-09-18T05:55:14.439Z,100.00
2022-09-18T05:57:46.349Z,100.00
2022-09-18T06:00:19.730Z,100.00
2022-09-18T06:03:00.693Z,100.00
2022-09-18T06:05:34.084Z,100.00
2022-09-18T06:08:07.543Z,100.00
2022-09-18T06:10:39.904Z,100.00
2022-09-18T06:13:13.497Z,100.00
2022-09-18T06:15:48.489Z,100.00
2022-09-18T06:18:21.221Z,100.00
2022-09-18T06:20:57.539Z,100.00
2022-09-18T06:23:32.026Z,100.00
2022-09-18T06:26:17.159Z,100.00
2022-09-18T06:28:51.846Z,100.00
2022-09-18T06:31:23.612Z,100.00
2022-09-18T06:34:09.743Z,100.00
2022-09-18T06:36:42.405Z,100.00
2022-09-18T06:39:25.444Z,100.00
2022-09-18T06:42:02.182Z,100.00
2022-09-18T06:44:57.199Z,100.00
2022-09-18T06:47:29.016Z,100.00
2022-09-18T06:49:58.971Z,100.00
2022-09-18T06:52:32.166Z,100.00
2022-09-18T06:55:07.165Z,100.00
2022-09-18T06:57:39.101Z,100.00
2022-09-18T07:00:13.440Z,100.00
2022-09-18T07:02:45.469Z,100.00
2022-09-18T07:05:42.641Z,100.00
2022-09-18T07:08:15.255Z,100.00
2022-09-18T07:10:46.940Z,100.00
2022-09-18T07:13:17.233Z,100.00
2022-09-18T07:15:50.948Z,100.00
2022-09-18T07:18:23.427Z,100.00
2022-09-18T07:20:55.316Z,100.00
2022-09-18T07:23:36.442Z,100.00
2022-09-18T07:26:08.440Z,100.00
2022-09-18T07:28:40.400Z,100.00
2022-09-18T07:31:36.048Z,100.00
2022-09-18T07:34:10.340Z,100.00
2022-09-18T07:36:40.274Z,99.96
2022-09-18T07:39:12.652Z,99.44
2022-09-18T07:42:08.286Z,97.41
2022-09-18T07:44:41.007Z,95.43
2022-09-18T07:47:12.844Z,94.31
2022-09-18T07:49:44.746Z,94.15
2022-09-18T07:52:16.865Z,94.16
2022-09-18T07:54:52.021Z,91.09
2022-09-18T07:57:32.481Z,90.62
2022-09-18T08:00:20.239Z,91.36
2022-09-18T08:02:53.637Z,87.69
2022-09-18T08:05:45.205Z,87.49
2022-09-18T08:08:17.529Z,87.03
2022-09-18T08:11:27.957Z,85.22
2022-09-18T08:14:02.667Z,85.27
2022-09-18T08:16:47.043Z,85.28
2022-09-18T08:19:45.168Z,85.12
2022-09-18T08:22:26.019Z,84.80
2022-09-18T08:25:00.183Z,84.13
2022-09-18T08:27:32.761Z,82.88
2022-09-18T08:30:04.877Z,82.54
2022-09-18T08:32:36.807Z,81.99
2022-09-18T08:35:09.554Z,80.98
2022-09-18T08:37:45.703Z,79.54
2022-09-18T08:40:56.732Z,78.69
2022-09-18T08:43:42.340Z,77.13
2022-09-18T08:46:16.240Z,76.79
2022-09-18T08:48:56.061Z,76.42
2022-09-18T08:51:31.094Z,75.51
2022-09-18T08:54:11.148Z,74.07
2022-09-18T08:57:01.075Z,73.08
2022-09-18T08:59:39.851Z,73.70
2022-09-18T09:02:25.052Z,73.70
2022-09-18T09:05:00.794Z,72.35
2022-09-18T09:07:46.776Z,69.98
2022-09-18T09:10:31.067Z,68.37
2022-09-18T09:13:10.849Z,64.40
2022-09-18T09:15:43.422Z,63.62
2022-09-18T09:18:19.641Z,63.46
2022-09-18T09:20:54.357Z,64.85
2022-09-18T09:23:38.215Z,68.13
2022-09-18T09:26:20.349Z,68.47
2022-09-18T09:29:17.118Z,68.81
2022-09-18T09:32:11.909Z,68.56
2022-09-18T09:34:54.632Z,69.11
2022-09-18T09:37:52.208Z,69.11
2022-09-18T09:40:28.105Z,68.02
2022-09-18T09:43:02.646Z,67.55
2022-09-18T09:45:36.655Z,67.66
2022-09-18T09:48:12.006Z,67.15
2022-09-18T09:50:51.588Z,66.72
2022-09-18T09:53:25.247Z,66.92
2022-09-18T09:56:02.334Z,67.34
2022-09-18T09:58:40.442Z,66.47
2022-09-18T10:01:15.512Z,65.99
2022-09-18T10:03:52.641Z,65.81
2022-09-18T10:06:36.605Z,64.39
2022-09-18T10:09:14.283Z,62.91
2022-09-18T10:11:48.465Z,63.86
2022-09-18T10:14:21.475Z,63.84
2022-09-18T10:16:54.471Z,62.77
2022-09-18T10:19:29.737Z,62.77
2022-09-18T10:22:01.187Z,62.62
2022-09-18T10:24:31.388Z,59.34
2022-09-18T10:27:09.651Z,58.61
2022-09-18T10:29:41.742Z,57.91
2022-09-18T10:32:15.586Z,57.59
2022-09-18T10:34:51.442Z,57.37
2022-09-18T10:37:42.455Z,56.12
2022-09-18T10:40:33.499Z,54.01
2022-09-18T10:43:05.451Z,53.45
2022-09-18T10:45:42.196Z,52.73
2022-09-18T10:48:29.134Z,52.26
2022-09-18T10:51:03.762Z,49.36
2022-09-18T10:53:44.031Z,45.99
2022-09-18T10:56:33.833Z,44.29
2022-09-18T10:59:31.998Z,43.56
2022-09-18T11:02:04.407Z,42.10
2022-09-18T11:04:36.618Z,42.44
2022-09-18T11:07:09.175Z,42.34
2022-09-18T11:09:41.079Z,41.55
2022-09-18T11:12:20.964Z,41.53
2022-09-18T11:14:56.766Z,41.64
2022-09-18T11:17:30.296Z,41.75
2022-09-18T11:20:03.454Z,41.84
2022-09-18T11:23:02.122Z,40.72
2022-09-18T11:25:36.128Z,40.20
2022-09-18T11:28:25.015Z,40.27
2022-09-18T11:31:01.707Z,39.93
2022-09-18T11:33:37.778Z,39.87
2022-09-18T11:36:12.632Z,39.06
2022-09-18T11:38:45.681Z,38.96
2022-09-18T11:41:24.729Z,38.80
2022-09-18T11:44:03.261Z,38.54
2022-09-18T11:46:42.653Z,38.89
2022-09-18T11:49:16.280Z,39.07
2022-09-18T11:51:52.528Z,38.96
2022-09-18T11:54:29.407Z,38.77
2022-09-18T11:57:02.510Z,38.38
2022-09-18T11:59:36.002Z,38.51
2022-09-18T12:02:13.401Z,38.86
2022-09-18T12:04:46.619Z,37.78
2022-09-18T12:10:27.900Z,35.91
2022-09-18T12:13:07.078Z,36.42
2022-09-18T12:15:39.495Z,35.59
2022-09-18T12:18:12.838Z,35.06
2022-09-18T12:20:45.710Z,34.90
2022-09-18T12:23:25.097Z,34.16
2022-09-18T12:26:05.003Z,34.01
2022-09-18T12:28:55.760Z,34.16
2022-09-18T12:31:32.675Z,34.47
2022-09-18T12:34:08.874Z,35.01
2022-09-18T12:36:50.471Z,35.31
2022-09-18T12:39:25.426Z,35.75
2022-09-18T12:42:03.287Z,35.96
2022-09-18T12:44:51.677Z,35.84
2022-09-18T12:47:34.490Z,35.75
2022-09-18T12:50:26.653Z,34.90
2022-09-18T12:53:09.470Z,34.92
2022-09-18T12:55:54.595Z,35.05
2022-09-18T12:58:43.332Z,34.50
2022-09-18T13:01:26.177Z,34.32
2022-09-18T13:04:02.760Z,34.38
2022-09-18T13:06:38.660Z,34.48
2022-09-18T13:09:18.101Z,34.77
2022-09-18T13:11:51.021Z,34.98
2022-09-18T13:14:25.520Z,35.41
2022-09-18T13:16:59.580Z,36.22
2022-09-18T13:19:33.253Z,36.32
2022-09-18T13:22:06.098Z,36.58
2022-09-18T13:24:38.149Z,36.48
2022-09-18T13:27:10.848Z,36.40
2022-09-18T13:29:59.247Z,36.46
2022-09-18T13:32:41.863Z,36.30
2022-09-18T13:35:24.712Z,37.02
2022-09-18T13:38:17.427Z,37.28
2022-09-18T13:40:50.759Z,37.64
2022-09-18T13:43:36.553Z,37.79
2022-09-18T13:46:08.136Z,37.82
2022-09-18T13:48:46.266Z,37.90
2022-09-18T13:51:22.976Z,38.53
2022-09-18T13:54:16.199Z,38.77
2022-09-18T13:57:17.515Z,38.77
2022-09-18T13:59:50.501Z,38.62
2022-09-18T14:02:36.888Z,38.42
2022-09-18T14:05:31.515Z,38.35
2022-09-18T14:08:14.426Z,37.84
2022-09-18T14:11:15.813Z,37.40
2022-09-18T14:13:52.709Z,37.36
2022-09-18T14:16:43.812Z,37.90
2022-09-18T14:19:29.630Z,37.86
2022-09-18T14:22:01.627Z,37.94
2022-09-18T14:25:00.275Z,38.16
2022-09-18T14:27:41.100Z,38.01
2022-09-18T14:30:22.348Z,37.97
2022-09-18T14:33:19.994Z,38.27
2022-09-18T14:35:54.467Z,39.06
2022-09-18T14:38:29.439Z,39.53
2022-09-18T14:41:09.098Z,40.09
2022-09-18T14:43:42.368Z,40.18
2022-09-18T14:46:22.371Z,40.34
2022-09-18T14:48:54.482Z,40.52
2022-09-18T14:51:27.293Z,40.83
2022-09-18T14:53:59.519Z,41.04
2022-09-18T14:56:32.584Z,41.02
2022-09-18T14:59:06.506Z,40.87
2022-09-18T15:01:40.274Z,41.36
2022-09-18T15:04:17.942Z,41.90
2022-09-18T15:06:50.650Z,42.55
2022-09-18T15:09:27.567Z,43.94
2022-09-18T15:12:02.706Z,45.14
2022-09-18T15:14:43.024Z,46.21
2022-09-18T15:17:20.515Z,47.22
2022-09-18T15:20:00.034Z,47.91
2022-09-18T15:22:32.238Z,48.45
2022-09-18T15:25:03.912Z,48.81
2022-09-18T15:27:35.405Z,48.90
2022-09-18T15:30:09.958Z,49.20
2022-09-18T15:32:42.677Z,49.27
2022-09-18T15:35:20.725Z,49.20
2022-09-18T15:38:02.551Z,48.98
2022-09-18T15:40:35.868Z,49.02
2022-09-18T15:43:13.166Z,48.61
2022-09-18T15:45:45.349Z,48.83
2022-09-18T15:48:39.590Z,48.41
2022-09-18T15:51:13.873Z,47.96
2022-09-18T15:53:45.404Z,47.72
2022-09-18T15:56:21.470Z,47.22
2022-09-18T15:58:58.229Z,46.66
2022-09-18T16:01:35.801Z,46.71
2022-09-18T16:04:20.908Z,46.49
2022-09-18T16:07:01.146Z,47.03
2022-09-18T16:09:43.615Z,47.67
2022-09-18T16:12:41.319Z,48.54
2022-09-18T16:15:24.351Z,49.55
2022-09-18T16:18:04.171Z,50.78
2022-09-18T16:20:40.569Z,51.35
2022-09-18T16:23:30.496Z,51.45
2022-09-18T16:26:07.823Z,51.28
2022-09-18T16:28:41.899Z,49.32
2022-09-18T16:31:14.463Z,48.71
2022-09-18T16:33:57.481Z,48.37
2022-09-18T16:36:31.841Z,48.54
2022-09-18T16:39:05.451Z,48.71
2022-09-18T16:41:37.079Z,49.29
2022-09-18T16:44:07.813Z,49.82
2022-09-18T16:46:43.129Z,50.54
2022-09-18T16:49:15.143Z,51.43
2022-09-18T16:51:46.712Z,52.25
2022-09-18T16:54:18.113Z,52.94
2022-09-18T16:56:52.108Z,53.68
2022-09-18T16:59:24.817Z,54.36
2022-09-18T17:02:04.550Z,55.11
2022-09-18T17:04:36.421Z,55.87
2022-09-18T17:07:08.350Z,56.52
2022-09-18T17:09:39.890Z,57.34
2022-09-18T17:12:11.550Z,58.06
2022-09-18T17:14:43.223Z,58.41
2022-09-18T17:17:13.887Z,58.96
2022-09-18T17:19:45.367Z,59.56
2022-09-18T17:22:19.903Z,60.43
2022-09-18T17:24:53.858Z,61.54
2022-09-18T17:27:26.405Z,62.12
2022-09-18T17:29:58.536Z,62.66
2022-09-18T17:32:30.791Z,63.09
2022-09-18T17:35:02.285Z,63.91
2022-09-18T17:37:33.804Z,64.46
2022-09-18T17:40:06.003Z,64.70
2022-09-18T17:42:37.495Z,65.10
2022-09-18T17:45:10.393Z,65.38
2022-09-18T17:47:42.233Z,65.87
2022-09-18T17:50:14.034Z,66.12
2022-09-18T17:52:46.565Z,66.75
2022-09-18T17:55:18.581Z,67.65
2022-09-18T17:57:53.172Z,68.33
2022-09-18T18:00:25.728Z,68.69
2022-09-18T18:02:57.428Z,69.25
2022-09-18T18:05:27.257Z,69.89
2022-09-18T18:07:58.800Z,70.01
2022-09-18T18:10:30.525Z,69.69
2022-09-18T18:13:00.581Z,69.65
2022-09-18T18:15:32.669Z,70.18
2022-09-18T18:18:04.207Z,69.31
2022-09-18T18:20:36.603Z,56.18
2022-09-18T18:23:10.577Z,51.93
2022-09-18T18:25:45.401Z,51.65
2022-09-18T18:28:16.960Z,50.59
2022-09-18T18:30:56.939Z,49.24
2022-09-18T18:33:28.967Z,47.06
2022-09-18T18:36:10.094Z,45.56
2022-09-18T18:38:41.712Z,43.98
2022-09-18T18:41:13.612Z,43.52
2022-09-18T18:43:45.608Z,43.56
2022-09-18T18:46:17.509Z,43.40
2022-09-18T18:48:49.585Z,43.36
2022-09-18T18:51:21.056Z,43.41
2022-09-18T18:53:55.222Z,43.39
2022-09-18T18:56:27.457Z,43.73
2022-09-18T18:59:01.507Z,43.29
2022-09-18T19:01:33.411Z,42.86
2022-09-18T19:04:07.325Z,42.83
2022-09-18T19:06:39.252Z,42.98
2022-09-18T19:09:11.885Z,43.33
2022-09-18T19:11:48.598Z,43.78
2022-09-18T19:14:20.744Z,44.19
2022-09-18T19:16:52.296Z,44.56
2022-09-18T19:19:25.159Z,44.90
2022-09-18T19:22:01.074Z,45.34
2022-09-18T19:24:33.861Z,45.73
2022-09-18T19:27:06.080Z,46.11
2022-09-18T19:29:39.822Z,46.31
2022-09-18T19:32:11.784Z,46.71
2022-09-18T19:34:41.480Z,46.95
2022-09-18T19:37:17.813Z,47.17
2022-09-18T19:39:50.701Z,47.42
2022-09-18T19:42:22.235Z,47.68
2022-09-18T19:44:54.773Z,48.00
2022-09-18T19:47:28.110Z,48.35
2022-09-18T19:50:00.316Z,48.76
2022-09-18T19:52:31.798Z,49.22
2022-09-18T19:55:03.607Z,49.66
2022-09-18T19:57:33.586Z,49.93
2022-09-18T20:00:05.934Z,50.16
2022-09-18T20:02:43.797Z,50.27
2022-09-18T20:05:13.504Z,50.70
2022-09-18T20:07:47.107Z,51.15
2022-09-18T20:10:19.747Z,51.32
2022-09-18T20:12:52.999Z,51.53
2022-09-18T20:15:24.523Z,51.67
2022-09-18T20:17:56.045Z,51.73
2022-09-18T20:20:27.519Z,51.89
2022-09-18T20:23:01.090Z,52.07
2022-09-18T20:25:32.725Z,52.05
2022-09-18T20:28:04.543Z,52.08
2022-09-18T20:30:36.171Z,52.10
2022-09-18T20:33:08.023Z,52.36
2022-09-18T20:35:39.712Z,52.60
2022-09-18T20:38:12.130Z,52.90
2022-09-18T20:40:44.381Z,53.28
2022-09-18T20:43:16.747Z,53.65
2022-09-18T20:45:50.051Z,53.96
2022-09-18T20:48:27.911Z,54.18
2022-09-18T20:50:59.948Z,54.46
2022-09-18T20:53:32.772Z,54.50
2022-09-18T20:56:05.136Z,54.66
2022-09-18T20:58:37.379Z,54.87
2022-09-18T21:01:13.299Z,54.90
2022-09-18T21:03:46.014Z,55.09
2022-09-18T21:06:22.856Z,55.32
2022-09-18T21:08:55.934Z,55.43
2022-09-18T21:11:28.540Z,55.81
2022-09-18T21:14:01.523Z,56.25
2022-09-18T21:16:34.275Z,56.41
2022-09-18T21:19:06.948Z,56.55
2022-09-18T21:21:38.635Z,57.25
2022-09-18T21:24:11.185Z,57.66
2022-09-18T21:26:44.050Z,57.71
2022-09-18T21:29:17.380Z,57.99
2022-09-18T21:31:49.821Z,58.23
2022-09-18T21:34:23.815Z,58.29
2022-09-18T21:36:56.806Z,58.58
2022-09-18T21:39:29.688Z,59.28
2022-09-18T21:42:02.164Z,59.66
2022-09-18T21:44:38.169Z,59.66
2022-09-18T21:47:11.089Z,59.72
2022-09-18T21:49:43.901Z,59.60
2022-09-18T21:52:17.308Z,59.57
2022-09-18T21:54:49.929Z,59.59
2022-09-18T21:57:22.180Z,59.70
2022-09-18T21:59:53.701Z,60.19
2022-09-18T22:02:25.390Z,60.39
2022-09-18T22:04:57.955Z,60.25
2022-09-18T22:07:29.844Z,60.20
2022-09-18T22:10:01.582Z,60.36
2022-09-18T22:12:32.883Z,60.43
2022-09-18T22:15:04.484Z,60.53
2022-09-18T22:17:35.980Z,60.96
2022-09-18T22:20:08.786Z,61.86
2022-09-18T22:22:40.274Z,62.09
2022-09-18T22:25:13.041Z,62.16
2022-09-18T22:27:44.474Z,62.20
2022-09-18T22:30:17.181Z,62.13
2022-09-18T22:32:48.620Z,62.52
2022-09-18T22:35:18.840Z,63.11
2022-09-18T22:37:50.433Z,63.25
2022-09-18T22:40:22.531Z,63.26
2022-09-18T22:42:52.652Z,63.34
2022-09-18T22:45:24.332Z,63.24
2022-09-18T22:47:55.832Z,63.38
2022-09-18T22:50:27.616Z,63.86
2022-09-18T22:52:59.210Z,64.33
2022-09-18T22:55:29.212Z,64.27
2022-09-18T22:58:01.623Z,64.36
2022-09-18T23:00:33.592Z,64.34
2022-09-18T23:03:05.630Z,64.40
2022-09-18T23:05:40.683Z,64.99
2022-09-18T23:08:12.929Z,65.41
2022-09-18T23:10:44.954Z,65.46
2022-09-18T23:13:16.536Z,65.24
2022-09-18T23:15:46.824Z,65.13
2022-09-18T23:18:19.001Z,65.38
2022-09-18T23:20:50.736Z,65.84
2022-09-18T23:23:22.395Z,66.03
2022-09-18T23:25:54.319Z,66.01
2022-09-18T23:28:26.233Z,65.95
2022-09-18T23:30:58.470Z,66.19
2022-09-18T23:33:28.426Z,66.63
2022-09-18T23:36:07.150Z,66.85
2022-09-18T23:38:38.796Z,66.87
2022-09-18T23:41:12.987Z,66.79
2022-09-18T23:43:48.291Z,67.25
2022-09-18T23:46:20.263Z,67.75
2022-09-18T23:48:55.413Z,68.16
2022-09-18T23:51:28.221Z,68.15
2022-09-18T23:54:00.268Z,68.27
2022-09-18T23:56:34.146Z,68.28
2022-09-18T23:59:06.541Z,68.69
